createdAt,value
2018-06-21T00:00:35.547Z,4.33
2018-06-21T00:03:03.973Z,4.33
2018-06-21T00:05:32.305Z,4.60
2018-06-21T00:08:00.765Z,4.00
2018-06-21T00:10:29.148Z,4.10
2018-06-21T00:12:57.488Z,4.27
2018-06-21T00:15:26.025Z,4.37
2018-06-21T00:17:54.389Z,3.97
2018-06-21T00:20:22.826Z,4.37
2018-06-21T00:22:51.350Z,5.23
2018-06-21T00:25:19.908Z,4.40
2018-06-21T00:27:48.490Z,4.13
2018-06-21T00:30:16.958Z,4.53
2018-06-21T00:32:45.432Z,4.80
2018-06-21T00:35:13.845Z,4.40
2018-06-21T00:37:42.316Z,4.47
2018-06-21T00:40:10.701Z,4.30
2018-06-21T00:42:39.205Z,4.40
2018-06-21T00:45:09.663Z,4.47
2018-06-21T00:47:38.126Z,4.13
2018-06-21T00:50:06.504Z,5.50
2018-06-21T00:52:34.864Z,5.53
2018-06-21T00:55:03.429Z,5.33
2018-06-21T00:57:31.839Z,4.60
2018-06-21T01:00:00.250Z,4.83
2018-06-21T01:02:28.756Z,5.17
2018-06-21T01:04:57.116Z,4.90
2018-06-21T01:07:25.460Z,4.47
2018-06-21T01:09:53.847Z,4.30
2018-06-21T01:12:23.141Z,4.00
2018-06-21T01:14:53.430Z,4.57
2018-06-21T01:17:21.848Z,4.80
2018-06-21T01:19:50.322Z,5.00
2018-06-21T01:22:18.780Z,4.43
2018-06-21T01:24:47.270Z,4.90
2018-06-21T01:27:15.666Z,4.63
2018-06-21T01:29:44.052Z,4.43
2018-06-21T01:32:12.404Z,4.60
2018-06-21T01:34:40.790Z,3.80
2018-06-21T01:37:09.246Z,4.57
2018-06-21T01:39:37.641Z,4.27
2018-06-21T01:42:06.111Z,5.13
2018-06-21T01:44:34.494Z,3.93
2018-06-21T01:47:03.023Z,4.90
2018-06-21T01:49:31.540Z,4.00
2018-06-21T01:51:59.994Z,5.73
2018-06-21T01:54:28.469Z,4.83
2018-06-21T01:56:57.068Z,4.87
2018-06-21T01:59:25.447Z,4.80
2018-06-21T02:01:53.950Z,4.13
2018-06-21T02:04:23.214Z,4.83
2018-06-21T02:06:51.642Z,4.60
2018-06-21T02:09:20.071Z,4.60
2018-06-21T02:11:48.562Z,4.47
2018-06-21T02:14:17.092Z,4.63
2018-06-21T02:16:45.697Z,4.37
2018-06-21T02:19:14.185Z,4.90
2018-06-21T02:21:42.767Z,4.90
2018-06-21T02:24:11.348Z,5.30
2018-06-21T02:26:39.867Z,5.13
2018-06-21T02:29:08.386Z,5.80
2018-06-21T02:31:37.237Z,4.93
2018-06-21T02:34:05.991Z,4.60
2018-06-21T02:36:34.511Z,4.93
2018-06-21T02:39:03.306Z,6.00
2018-06-21T02:41:31.879Z,5.07
2018-06-21T02:44:00.373Z,5.27
2018-06-21T02:46:28.910Z,4.67
2018-06-21T02:48:57.449Z,5.00
2018-06-21T02:51:25.945Z,4.50
2018-06-21T02:53:54.485Z,4.17
2018-06-21T02:56:23.011Z,4.50
2018-06-21T02:58:51.723Z,4.57
2018-06-21T03:01:20.591Z,4.97
2018-06-21T03:03:49.246Z,4.37
2018-06-21T03:06:17.888Z,3.80
2018-06-21T03:08:46.581Z,3.57
2018-06-21T03:11:15.322Z,3.20
2018-06-21T03:13:43.896Z,3.77
2018-06-21T03:16:12.470Z,3.37
2018-06-21T03:18:41.287Z,3.40
2018-06-21T03:21:09.739Z,3.03
2018-06-21T03:23:38.169Z,3.03
2018-06-21T03:26:06.672Z,3.03
2018-06-21T03:28:35.044Z,3.07
2018-06-21T03:31:03.617Z,3.07
2018-06-21T03:33:32.250Z,3.00
2018-06-21T03:36:00.620Z,2.90
2018-06-21T03:38:28.976Z,2.83
2018-06-21T03:40:57.331Z,2.33
2018-06-21T03:43:25.729Z,2.50
2018-06-21T03:45:54.088Z,2.77
2018-06-21T03:48:22.477Z,2.50
2018-06-21T03:50:50.916Z,2.90
2018-06-21T03:53:19.370Z,3.10
2018-06-21T03:55:47.900Z,2.80
2018-06-21T03:58:16.416Z,3.03
2018-06-21T04:00:44.806Z,2.87
2018-06-21T04:03:13.246Z,2.57
2018-06-21T04:05:41.571Z,2.50
2018-06-21T04:08:09.921Z,1.90
2018-06-21T04:10:38.275Z,2.33
2018-06-21T04:13:06.933Z,1.57
2018-06-21T04:15:35.350Z,1.70
2018-06-21T04:18:03.725Z,1.40
2018-06-21T04:20:32.237Z,1.60
2018-06-21T04:23:00.640Z,1.30
2018-06-21T04:25:29.032Z,1.17
2018-06-21T04:27:57.429Z,0.90
2018-06-21T04:30:25.841Z,1.00
2018-06-21T04:32:54.250Z,1.43
2018-06-21T04:35:22.682Z,0.93
2018-06-21T04:37:51.345Z,1.20
2018-06-21T04:40:19.957Z,1.10
2018-06-21T04:42:49.089Z,1.03
2018-06-21T04:45:17.481Z,0.80
2018-06-21T04:47:45.881Z,0.90
2018-06-21T04:50:14.253Z,0.80
2018-06-21T04:52:42.807Z,0.87
2018-06-21T04:55:11.372Z,0.87
2018-06-21T04:57:39.922Z,0.80
2018-06-21T05:00:08.539Z,0.90
2018-06-21T05:02:36.924Z,1.10
2018-06-21T05:05:05.322Z,0.90
2018-06-21T05:07:33.752Z,0.93
2018-06-21T05:10:02.645Z,1.10
2018-06-21T05:12:31.097Z,0.90
2018-06-21T05:14:59.469Z,1.17
2018-06-21T05:17:27.967Z,0.90
2018-06-21T05:19:56.339Z,0.80
2018-06-21T05:22:24.802Z,0.90
2018-06-21T05:24:53.233Z,0.98
2018-06-21T05:27:21.629Z,1.10
2018-06-21T05:29:50.050Z,1.03
2018-06-21T05:32:18.505Z,1.00
2018-06-21T05:34:46.680Z,1.27
2018-06-21T05:37:15.059Z,0.97
2018-06-21T05:39:43.520Z,1.03
2018-06-21T05:42:11.961Z,1.10
2018-06-21T05:44:40.362Z,1.20
2018-06-21T05:47:08.880Z,1.17
2018-06-21T05:49:37.375Z,1.40
2018-06-21T05:52:05.804Z,1.00
2018-06-21T05:54:34.300Z,1.10
2018-06-21T05:57:02.757Z,1.37
2018-06-21T05:59:31.281Z,1.07
2018-06-21T06:01:59.718Z,1.03
2018-06-21T06:04:28.097Z,1.20
2018-06-21T06:06:56.537Z,1.40
2018-06-21T06:09:24.971Z,1.27
2018-06-21T06:11:53.429Z,1.30
2018-06-21T06:14:21.784Z,1.40
2018-06-21T06:16:50.184Z,1.10
2018-06-21T06:19:18.600Z,1.30
2018-06-21T06:21:47.033Z,1.33
2018-06-21T06:24:15.409Z,1.20
2018-06-21T06:26:43.835Z,1.10
2018-06-21T06:29:12.259Z,1.10
2018-06-21T06:31:41.041Z,1.10
2018-06-21T06:34:09.548Z,1.30
2018-06-21T06:36:38.025Z,0.90
2018-06-21T06:39:17.733Z,0.80
2018-06-21T06:41:47.574Z,0.90
2018-06-21T06:44:15.982Z,1.20
2018-06-21T06:46:44.410Z,0.87
2018-06-21T06:49:13.273Z,0.93
2018-06-21T06:51:41.871Z,1.10
2018-06-21T06:54:11.136Z,1.10
2018-06-21T06:56:39.822Z,0.90
2018-06-21T06:59:08.491Z,0.90
2018-06-21T07:01:36.912Z,0.77
2018-06-21T07:04:05.474Z,1.10
2018-06-21T07:06:33.859Z,0.63
2018-06-21T07:09:02.304Z,0.90
2018-06-21T07:11:30.707Z,0.60
2018-06-21T07:13:59.294Z,0.70
2018-06-21T07:16:27.753Z,0.90
2018-06-21T07:18:56.170Z,0.80
2018-06-21T07:21:24.780Z,0.80
2018-06-21T07:23:53.312Z,0.70
2018-06-21T07:26:21.881Z,0.80
2018-06-21T07:28:50.403Z,0.60
2018-06-21T07:31:18.820Z,1.00
2018-06-21T07:33:47.278Z,1.00
2018-06-21T07:36:15.624Z,1.10
2018-06-21T07:38:44.033Z,0.97
2018-06-21T07:41:12.391Z,0.90
2018-06-21T07:43:40.744Z,1.00
2018-06-21T07:46:09.178Z,1.10
2018-06-21T07:48:37.640Z,0.90
2018-06-21T07:51:06.262Z,0.90
2018-06-21T07:53:34.787Z,0.90
2018-06-21T07:56:03.209Z,0.80
2018-06-21T07:58:31.629Z,1.00
2018-06-21T08:01:00.073Z,0.90
2018-06-21T08:03:28.448Z,0.70
2018-06-21T08:05:56.873Z,1.03
2018-06-21T08:08:25.343Z,0.80
2018-06-21T08:10:53.826Z,1.03
2018-06-21T08:13:22.238Z,0.93
2018-06-21T08:15:50.758Z,0.90
2018-06-21T08:18:19.151Z,0.73
2018-06-21T08:20:47.556Z,0.90
2018-06-21T08:23:16.004Z,0.80
2018-06-21T08:25:44.058Z,0.80
2018-06-21T08:28:12.514Z,0.80
2018-06-21T08:30:41.022Z,0.80
2018-06-21T08:33:09.446Z,0.90
2018-06-21T08:35:38.122Z,0.93
2018-06-21T08:38:06.549Z,0.87
2018-06-21T08:40:34.978Z,0.67
2018-06-21T08:43:03.306Z,0.77
2018-06-21T08:45:31.821Z,0.63
2018-06-21T08:48:00.332Z,0.80
2018-06-21T08:50:28.794Z,0.90
2018-06-21T08:52:57.166Z,0.90
2018-06-21T08:55:25.612Z,1.00
2018-06-21T08:57:54.006Z,0.87
2018-06-21T09:00:22.421Z,1.10
2018-06-21T09:02:50.828Z,1.03
2018-06-21T09:05:19.296Z,1.00
2018-06-21T09:07:47.674Z,0.93
2018-06-21T09:10:16.129Z,1.17
2018-06-21T09:12:44.744Z,1.27
2018-06-21T09:15:13.265Z,1.10
2018-06-21T09:17:41.693Z,0.90
2018-06-21T09:20:10.175Z,0.73
2018-06-21T09:22:38.644Z,0.80
2018-06-21T09:25:07.085Z,0.90
2018-06-21T09:27:35.485Z,1.27
2018-06-21T09:30:03.925Z,1.20
2018-06-21T09:32:32.444Z,1.23
2018-06-21T09:35:00.602Z,1.10
2018-06-21T09:37:34.555Z,0.97
2018-06-21T09:40:08.270Z,1.00
2018-06-21T09:42:42.193Z,0.97
2018-06-21T09:45:10.613Z,1.40
2018-06-21T09:47:44.284Z,1.47
2018-06-21T09:50:16.965Z,1.43
2018-06-21T09:52:45.974Z,1.30
2018-06-21T09:55:14.496Z,1.00
2018-06-21T09:57:42.886Z,1.20
2018-06-21T10:00:15.501Z,1.40
2018-06-21T10:02:43.925Z,1.07
2018-06-21T10:05:12.420Z,1.17
2018-06-21T10:07:40.900Z,1.40
2018-06-21T10:10:09.400Z,1.30
2018-06-21T10:12:37.834Z,1.60
2018-06-21T10:15:06.223Z,1.07
2018-06-21T10:17:34.668Z,1.10
2018-06-21T10:20:03.059Z,0.90
2018-06-21T10:22:31.546Z,1.00
2018-06-21T10:24:59.980Z,1.00
2018-06-21T10:27:28.382Z,1.10
2018-06-21T10:29:56.763Z,0.90
2018-06-21T10:32:25.174Z,0.90
2018-06-21T10:34:53.540Z,1.00
2018-06-21T10:37:21.956Z,0.77
2018-06-21T10:39:50.347Z,1.00
2018-06-21T10:42:18.715Z,0.90
2018-06-21T10:44:47.140Z,0.87
2018-06-21T10:47:15.569Z,0.80
2018-06-21T10:49:44.088Z,1.03
2018-06-21T10:52:12.533Z,0.90
2018-06-21T10:54:40.980Z,0.77
2018-06-21T10:57:09.479Z,1.00
2018-06-21T10:59:37.976Z,0.57
2018-06-21T11:02:06.478Z,0.60
2018-06-21T11:04:34.888Z,0.70
2018-06-21T11:07:03.268Z,0.50
2018-06-21T11:09:31.693Z,0.60
2018-06-21T11:12:00.073Z,0.60
2018-06-21T11:14:28.536Z,0.83
2018-06-21T11:16:57.272Z,1.00
2018-06-21T11:19:25.660Z,0.70
2018-06-21T11:21:54.064Z,0.83
2018-06-21T11:24:22.827Z,0.70
2018-06-21T11:26:51.337Z,0.70
2018-06-21T11:29:19.734Z,0.67
2018-06-21T11:31:48.868Z,0.63
2018-06-21T11:34:53.281Z,0.80
2018-06-21T11:37:26.354Z,0.80
2018-06-21T11:39:55.778Z,0.50
2018-06-21T11:42:24.233Z,0.67
2018-06-21T11:44:52.656Z,0.70
2018-06-21T11:47:32.025Z,0.60
2018-06-21T11:50:00.504Z,0.67
2018-06-21T11:52:28.968Z,0.67
2018-06-21T11:54:57.320Z,0.60
2018-06-21T11:57:26.752Z,0.90
2018-06-21T11:59:56.240Z,0.67
2018-06-21T12:02:27.747Z,0.73
2018-06-21T12:05:01.444Z,0.80
2018-06-21T12:07:30.289Z,0.57
2018-06-21T12:10:00.206Z,0.70
2018-06-21T12:12:29.644Z,0.57
2018-06-21T12:14:58.578Z,0.93
2018-06-21T12:17:27.210Z,0.80
2018-06-21T12:20:01.894Z,0.70
2018-06-21T12:22:35.824Z,0.70
2018-06-21T12:25:17.909Z,0.70
2018-06-21T12:27:46.618Z,0.63
2018-06-21T12:30:15.143Z,0.80
2018-06-21T12:32:43.603Z,0.60
2018-06-21T12:35:12.933Z,0.60
2018-06-21T12:37:41.378Z,0.57
2018-06-21T12:40:09.853Z,0.30
2018-06-21T12:42:38.508Z,0.60
2018-06-21T12:45:07.619Z,0.90
2018-06-21T12:47:36.866Z,0.80
2018-06-21T12:50:06.727Z,0.60
2018-06-21T12:52:35.226Z,0.60
2018-06-21T12:55:04.440Z,0.73
2018-06-21T12:57:33.984Z,0.80
2018-06-21T13:00:03.578Z,0.67
2018-06-21T13:02:32.218Z,0.80
2018-06-21T13:05:03.677Z,0.80
2018-06-21T13:07:32.589Z,0.87
2018-06-21T13:10:13.363Z,0.80
2018-06-21T13:12:54.192Z,0.80
2018-06-21T13:15:23.431Z,0.70
2018-06-21T13:17:54.996Z,0.53
2018-06-21T13:20:24.958Z,0.80
2018-06-21T13:22:54.214Z,0.70
2018-06-21T13:25:22.849Z,0.40
2018-06-21T13:27:52.183Z,0.80
2018-06-21T13:30:21.077Z,0.70
2018-06-21T13:32:50.526Z,0.43
2018-06-21T13:35:19.179Z,0.40
2018-06-21T13:37:48.518Z,0.60
2018-06-21T13:40:17.518Z,0.60
2018-06-21T13:42:45.981Z,0.70
2018-06-21T13:45:14.460Z,0.80
2018-06-21T13:47:44.089Z,0.60
2018-06-21T13:50:13.995Z,0.77
2018-06-21T13:52:43.183Z,0.60
2018-06-21T13:55:11.622Z,0.50
2018-06-21T13:57:40.139Z,0.83
2018-06-21T14:00:08.578Z,0.70
2018-06-21T14:02:37.936Z,0.70
2018-06-21T14:05:06.504Z,0.70
2018-06-21T14:07:34.939Z,0.80
2018-06-21T14:10:03.263Z,0.70
2018-06-21T14:12:31.680Z,0.57
2018-06-21T14:15:00.127Z,0.70
2018-06-21T14:17:28.626Z,0.50
2018-06-21T14:19:57.044Z,0.80
2018-06-21T14:22:25.701Z,0.60
2018-06-21T14:24:54.150Z,0.60
2018-06-21T14:27:22.573Z,0.50
2018-06-21T14:29:52.024Z,0.80
2018-06-21T14:32:20.445Z,0.40
2018-06-21T14:34:49.045Z,0.63
2018-06-21T14:37:17.517Z,0.60
2018-06-21T14:39:46.017Z,0.57
2018-06-21T14:42:14.372Z,0.70
2018-06-21T14:44:42.745Z,0.60
2018-06-21T14:47:26.446Z,0.60
2018-06-21T14:49:54.817Z,0.50
2018-06-21T14:52:23.230Z,0.70
2018-06-21T14:57:26.102Z,0.60
2018-06-21T14:59:54.513Z,0.70
2018-06-21T15:02:23.064Z,0.67
2018-06-21T15:04:51.997Z,0.80
2018-06-21T15:07:24.958Z,0.60
2018-06-21T15:09:56.245Z,0.67
2018-06-21T15:12:27.516Z,0.40
2018-06-21T15:14:58.021Z,1.02
2018-06-21T15:17:53.423Z,0.50
2018-06-21T15:20:23.918Z,0.60
2018-06-21T15:22:54.465Z,0.60
2018-06-21T15:25:25.588Z,0.60
2018-06-21T15:27:55.791Z,0.63
2018-06-21T15:30:24.784Z,0.63
2018-06-21T15:32:56.971Z,0.80
2018-06-21T15:35:27.670Z,0.57
2018-06-21T15:37:56.169Z,0.60
2018-06-21T15:40:24.562Z,0.93
2018-06-21T15:42:53.281Z,0.77
2018-06-21T15:45:21.826Z,0.70
2018-06-21T15:47:50.532Z,0.57
2018-06-21T15:50:19.847Z,0.63
2018-06-21T15:52:48.309Z,0.70
2018-06-21T15:55:16.949Z,0.87
2018-06-21T15:57:45.788Z,0.73
2018-06-21T16:00:14.257Z,0.80
2018-06-21T16:02:43.333Z,0.87
2018-06-21T16:05:36.505Z,0.70
2018-06-21T16:08:05.021Z,0.70
2018-06-21T16:10:37.562Z,0.60
2018-06-21T16:13:09.139Z,0.80
2018-06-21T16:15:37.770Z,0.60
2018-06-21T16:18:08.317Z,0.80
2018-06-21T16:20:38.638Z,0.50
2018-06-21T16:23:09.437Z,0.70
2018-06-21T16:25:37.958Z,0.73
2018-06-21T16:28:14.018Z,0.80
2018-06-21T16:30:42.619Z,0.67
2018-06-21T16:33:23.324Z,0.87
2018-06-21T16:35:56.583Z,0.80
2018-06-21T16:38:38.905Z,0.90
2018-06-21T16:41:08.236Z,0.80
2018-06-21T16:43:38.131Z,0.70
2018-06-21T16:46:33.067Z,0.80
2018-06-21T16:49:08.639Z,0.90
2018-06-21T16:51:38.994Z,0.80
2018-06-21T16:54:16.143Z,0.60
2018-06-21T16:59:52.468Z,0.87
2018-06-21T17:02:24.657Z,0.70
2018-06-21T17:04:56.608Z,1.00
2018-06-21T17:07:27.307Z,0.70
2018-06-21T17:10:09.799Z,0.90
2018-06-21T17:12:38.407Z,0.80
2018-06-21T17:15:07.291Z,0.80
2018-06-21T17:17:35.786Z,0.90
2018-06-21T17:20:16.120Z,0.80
2018-06-21T17:22:55.305Z,0.80
2018-06-21T17:25:25.688Z,0.67
2018-06-21T17:27:54.285Z,0.70
2018-06-21T17:31:05.495Z,0.70
2018-06-21T17:33:34.207Z,0.60
2018-06-21T17:36:05.605Z,0.60
2018-06-21T17:38:34.349Z,0.60
2018-06-21T17:41:02.839Z,0.70
2018-06-21T17:43:33.113Z,0.77
2018-06-21T17:46:05.993Z,0.80
2018-06-21T17:48:36.416Z,0.90
2018-06-21T17:51:07.724Z,0.70
2018-06-21T17:53:36.287Z,0.63
2018-06-21T17:56:05.962Z,0.60
2018-06-21T17:58:34.582Z,0.80
2018-06-21T18:01:04.144Z,0.80
2018-06-21T18:03:32.698Z,0.80
2018-06-21T18:06:01.154Z,0.80
